Time;durP1;ratioP1;P1;durP2;ratioP2;P2;SDS_P1;SDS_P2;PMS_P1;PMS_P2;Temp;Humidity;BMP_temperature;BMP_pressure;BME280_temperature;BME280_humidity;BME280_pressure;Samples;Min_cycle;Max_cycle;Signal;HPM_P1;HPM_P2
2021/12/15 00:01:41;;;;;;;5.82;4.95;;;;;;;17.73;43.83;102135.25;4862525;29;20430;-72
2021/12/15 00:04:08;;;;;;;5.32;4.70;;;;;;;17.59;44.17;102138.16;4862338;29;20119;-82
2021/12/15 00:06:34;;;;;;;5.68;4.47;;;;;;;17.70;43.94;102149.72;4862082;29;20037;-74
2021/12/15 00:09:04;;;;;;;5.57;3.92;;;;;;;17.56;44.43;102144.34;4862139;29;20056;-72
2021/12/15 00:11:36;;;;;;;5.30;4.22;;;;;;;17.63;44.10;102160.44;4862126;29;20109;-71
2021/12/15 00:14:09;;;;;;;5.85;4.75;;;;;;;17.56;44.41;102154.59;4862271;29;20431;-72
2021/12/15 00:16:36;;;;;;;5.53;4.45;;;;;;;17.59;44.31;102146.44;4862320;29;20033;-71
2021/12/15 00:19:03;;;;;;;5.32;4.50;;;;;;;17.56;44.29;102147.09;4861908;29;20090;-71
2021/12/15 00:21:28;;;;;;;5.28;4.00;;;;;;;17.65;44.01;102133.28;4861881;29;20034;-79
2021/12/15 00:23:55;;;;;;;7.18;4.78;;;;;;;17.69;44.05;102139.78;4861791;29;20033;-72
2021/12/15 00:26:20;;;;;;;5.35;4.32;;;;;;;17.79;43.88;102145.00;4861867;29;20358;-72
2021/12/15 00:28:46;;;;;;;6.35;5.28;;;;;;;17.75;43.72;102141.25;4860607;29;20052;-72
2021/12/15 00:31:13;;;;;;;5.20;4.32;;;;;;;17.65;44.06;102133.28;4859927;29;20548;-72
2021/12/15 00:33:40;;;;;;;4.88;3.92;;;;;;;17.70;43.89;102139.50;4861745;29;20033;-71
2021/12/15 00:36:07;;;;;;;5.07;4.40;;;;;;;17.70;43.99;102133.13;4861630;29;20045;-72
2021/12/15 00:38:33;;;;;;;5.75;4.50;;;;;;;17.60;44.46;102125.97;4861624;29;20444;-71
2021/12/15 00:41:00;;;;;;;5.65;3.95;;;;;;;17.78;44.22;102140.63;4861500;29;20030;-72
2021/12/15 00:43:26;;;;;;;3.90;3.50;;;;;;;17.80;43.93;102143.84;4860858;29;20510;-72
2021/12/15 00:45:52;;;;;;;4.28;3.45;;;;;;;17.90;43.54;102137.97;4861359;29;20056;-82
2021/12/15 00:48:19;;;;;;;3.90;3.20;;;;;;;17.79;43.76;102153.28;4861408;29;20097;-72
2021/12/15 00:50:47;;;;;;;3.72;3.20;;;;;;;17.81;44.02;102150.19;4861419;29;20109;-71
2021/12/15 00:53:14;;;;;;;4.15;3.20;;;;;;;17.65;44.22;102153.44;4861361;29;20036;-72
2021/12/15 00:55:42;;;;;;;4.35;3.63;;;;;;;17.55;44.49;102162.06;4861315;29;20037;-72
2021/12/15 00:58:07;;;;;;;5.00;3.67;;;;;;;17.62;44.19;102158.81;4844984;29;20038;-72
2021/12/15 01:00:47;;;;;;;4.97;3.60;;;;;;;17.68;44.14;102163.03;4861222;29;20033;-72
2021/12/15 01:03:13;;;;;;;;;;;;;;;17.59;44.42;102149.22;4861684;29;20389;-71
2021/12/15 01:05:47;;;;;;;4.07;2.90;;;;;;;17.62;44.41;102154.09;4860992;29;19916;-72
2021/12/15 01:08:18;;;;;;;4.55;3.20;;;;;;;17.57;44.40;102142.41;4861084;29;20086;-80
2021/12/15 01:11:11;;;;;;;4.03;3.20;;;;;;;17.49;44.60;102138.50;4861288;29;20493;-72
2021/12/15 01:21:54;;;;;;;3.70;3.20;;;;;;;17.66;43.97;102144.00;4861183;29;20093;-72
2021/12/15 01:24:20;;;;;;;4.10;3.15;;;;;;;17.53;44.51;102158.00;4860860;29;20025;-73
2021/12/15 01:26:46;;;;;;;4.13;2.97;;;;;;;17.57;44.23;102157.03;4860692;29;20116;-71
2021/12/15 01:29:12;;;;;;;3.55;2.78;;;;;;;17.63;44.04;102155.72;4860574;29;20046;-72
2021/12/15 01:31:37;;;;;;;5.03;3.72;;;;;;;17.65;43.88;102158.16;4860811;29;20040;-74
2021/12/15 01:34:03;;;;;;;4.30;3.25;;;;;;;17.63;44.09;102149.38;4860684;29;20029;-72
2021/12/15 01:36:29;;;;;;;4.60;3.25;;;;;;;17.65;44.11;102150.66;4860733;29;20405;-71
2021/12/15 01:38:55;;;;;;;4.38;3.78;;;;;;;17.60;43.99;102145.31;4860664;29;20025;-71
2021/12/15 01:41:23;;;;;;;4.30;3.47;;;;;;;17.57;44.13;102145.97;4860647;29;20033;-71
2021/12/15 01:47:03;;;;;;;4.10;3.55;;;;;;;17.62;43.90;102147.75;4860402;29;20128;-72
2021/12/15 01:49:37;;;;;;;4.22;3.20;;;;;;;17.58;44.08;102142.06;4841262;29;20497;-71
2021/12/15 01:52:35;;;;;;;3.95;3.30;;;;;;;17.61;43.91;102141.44;4843904;29;20096;-72
2021/12/15 01:55:13;;;;;;;4.55;3.58;;;;;;;17.59;43.99;102129.06;4860177;29;20455;-71
2021/12/15 01:57:39;;;;;;;3.65;2.83;;;;;;;17.64;44.01;102139.94;4860358;29;20088;-72
2021/12/15 02:00:32;;;;;;;4.43;3.15;;;;;;;17.45;44.51;102137.50;4860353;29;20057;-71
2021/12/15 02:02:58;;;;;;;4.22;3.22;;;;;;;17.47;44.57;102140.78;4850963;29;20103;-71
2021/12/15 02:05:26;;;;;;;3.55;2.83;;;;;;;17.49;44.32;102138.50;4860137;29;20029;-71
2021/12/15 02:07:52;;;;;;;4.40;3.20;;;;;;;17.70;43.87;102130.34;4860193;29;20044;-79
2021/12/15 02:10:20;;;;;;;5.00;3.28;;;;;;;17.48;44.55;102125.81;4860224;29;20458;-72
2021/12/15 02:12:46;;;;;;;4.05;2.90;;;;;;;17.58;44.28;102130.19;4843543;29;20030;-71
2021/12/15 02:15:16;;;;;;;4.00;3.05;;;;;;;17.56;44.29;102124.19;4860199;29;20037;-71
2021/12/15 02:17:43;;;;;;;3.47;2.65;;;;;;;17.57;44.42;102123.84;4860206;29;20473;-71
2021/12/15 02:20:12;;;;;;;5.32;2.63;;;;;;;17.61;44.41;102124.84;4860130;29;20026;-81
2021/12/15 02:22:37;;;;;;;3.75;2.83;;;;;;;17.73;44.04;102127.75;4860017;29;20033;-71
2021/12/15 02:25:07;;;;;;;4.50;2.40;;;;;;;17.74;44.17;102137.69;4859808;29;20028;-72
2021/12/15 02:27:35;;;;;;;3.40;2.83;;;;;;;17.54;44.58;102141.09;4860010;29;20040;-71
2021/12/15 02:30:18;;;;;;;3.47;2.25;;;;;;;17.68;44.24;102141.75;4859964;29;20137;-72
2021/12/15 02:38:35;;;;;;;5.80;2.28;;;;;;;17.63;44.63;102152.16;4859714;29;20113;-68
2021/12/15 02:41:08;;;;;;;2.28;1.90;;;;;;;17.61;44.65;102146.94;4860035;29;20040;-68
2021/12/15 02:43:34;;;;;;;3.58;1.90;;;;;;;17.67;44.28;102155.88;4860008;29;20029;-68
2021/12/15 02:46:00;;;;;;;3.38;1.83;;;;;;;17.59;44.76;102151.97;4859830;29;20382;-68
2021/12/15 02:48:26;;;;;;;3.30;1.95;;;;;;;17.71;44.18;102157.69;4859861;29;20087;-69
2021/12/15 02:50:52;;;;;;;2.00;1.60;;;;;;;17.67;44.36;102153.09;4859734;29;20029;-68
2021/12/15 02:53:17;;;;;;;3.53;1.60;;;;;;;17.82;44.15;102151.81;4860047;29;20041;-69
2021/12/15 02:55:43;;;;;;;1.73;1.40;;;;;;;17.83;43.83;102150.66;4859811;29;20058;-69
2021/12/15 02:58:09;;;;;;;2.17;1.50;;;;;;;17.76;44.11;102142.91;4843237;29;20033;-69
2021/12/15 03:06:19;;;;;;;3.95;1.70;;;;;;;17.80;43.85;102159.63;4861815;29;20045;-68
2021/12/15 03:08:52;;;;;;;2.83;1.50;;;;;;;17.58;44.45;102172.47;4863317;29;20214;-69
2021/12/15 03:16:49;;;;;;;3.17;1.30;;;;;;;17.69;44.13;102179.31;4863252;29;20032;-69
2021/12/15 03:19:18;;;;;;;2.83;1.35;;;;;;;17.68;44.06;102174.91;4863216;29;20053;-69
2021/12/15 03:21:43;;;;;;;3.92;1.70;;;;;;;17.81;43.54;102166.78;4846398;29;20026;-68
2021/12/15 03:24:17;;;;;;;5.57;1.48;;;;;;;17.60;44.02;102174.91;4862874;29;20029;-69
2021/12/15 03:26:52;;;;;;;6.28;1.33;;;;;;;17.61;44.18;102171.03;4862967;29;20033;-68
2021/12/15 03:37:28;;;;;;;4.90;1.33;;;;;;;17.64;44.06;102176.69;4863026;29;20043;-69
2021/12/15 03:39:59;;;;;;;4.05;1.10;;;;;;;17.67;43.75;102176.03;4862745;29;20029;-69
2021/12/15 03:42:32;;;;;;;4.40;1.00;;;;;;;17.69;43.80;102187.59;4862704;29;20040;-68
2021/12/15 03:47:37;;;;;;;3.42;1.13;;;;;;;17.58;43.65;102185.47;4868934;24;20066;-68
2021/12/15 03:50:06;;;;;;;3.10;1.38;;;;;;;17.58;43.87;102189.03;4862108;29;20044;-68
2021/12/15 03:52:32;;;;;;;4.82;1.70;;;;;;;17.55;43.99;102181.41;4862610;29;20029;-69
2021/12/15 03:54:58;;;;;;;4.72;1.40;;;;;;;17.59;43.86;102179.63;4862288;29;20086;-69
2021/12/15 03:57:24;;;;;;;4.18;1.23;;;;;;;17.54;43.73;102181.75;4862412;29;20025;-70
2021/12/15 03:59:49;;;;;;;2.70;0.98;;;;;;;17.55;43.60;102180.59;4862323;29;20040;-69
2021/12/15 04:02:18;;;;;;;6.05;1.17;;;;;;;17.55;43.54;102175.88;4862192;29;20030;-69
2021/12/15 04:04:45;;;;;;;5.35;1.92;;;;;;;17.50;43.85;102178.81;4862263;29;20113;-69
2021/12/15 04:07:12;;;;;;;4.50;1.40;;;;;;;17.53;43.69;102167.09;4861994;29;20385;-69
2021/12/15 04:09:39;;;;;;;1.83;1.02;;;;;;;17.59;43.64;102176.03;4862440;29;20121;-77
2021/12/15 04:12:06;;;;;;;5.00;1.08;;;;;;;17.58;43.43;102178.00;4861970;29;20115;-70
2021/12/15 04:14:42;;;;;;;2.25;1.13;;;;;;;17.66;43.39;102181.88;4862255;29;20031;-77
2021/12/15 04:17:26;;;;;;;5.22;1.08;;;;;;;17.67;43.14;102181.56;4861650;29;20029;-74
2021/12/15 04:19:54;;;;;;;2.75;1.42;;;;;;;17.60;43.46;102181.22;4861963;29;20059;-69
2021/12/15 04:22:20;;;;;;;3.55;0.93;;;;;;;17.62;43.29;102184.50;4862216;29;20038;-69
2021/12/15 04:24:46;;;;;;;6.38;1.48;;;;;;;17.55;43.38;102186.13;4861936;29;20529;-70
2021/12/15 04:27:11;;;;;;;4.22;1.17;;;;;;;17.47;43.52;102185.00;4861787;29;20050;-69
2021/12/15 04:29:39;;;;;;;2.88;1.10;;;;;;;17.55;43.34;102189.72;4861847;29;20029;-69
2021/12/15 04:32:11;;;;;;;5.53;1.35;;;;;;;17.54;43.62;102184.50;4861317;29;20060;-78
2021/12/15 04:34:37;;;;;;;4.80;1.02;;;;;;;17.59;43.35;102190.66;4859378;29;20038;-69
2021/12/15 04:37:03;;;;;;;3.65;1.55;;;;;;;17.50;43.34;102187.09;4861708;29;20449;-69
2021/12/15 04:39:28;;;;;;;7.47;1.70;;;;;;;17.55;43.56;102186.94;4861862;29;20038;-69
2021/12/15 04:41:57;;;;;;;4.30;1.15;;;;;;;17.56;43.46;102185.00;4861580;29;20033;-69
2021/12/15 04:44:29;;;;;;;2.45;1.20;;;;;;;17.50;43.65;102181.56;4861552;29;20479;-69
2021/12/15 04:47:04;;;;;;;4.43;1.80;;;;;;;17.37;44.06;102179.78;4874074;29;20407;-69
2021/12/15 04:49:35;;;;;;;4.97;1.48;;;;;;;17.32;44.00;102186.28;4879899;29;20036;-71
2021/12/15 04:52:01;;;;;;;2.00;1.17;;;;;;;17.44;43.87;102188.38;4879882;29;20515;-69
2021/12/15 04:54:28;;;;;;;3.38;1.20;;;;;;;17.51;43.85;102183.19;4879870;29;20032;-69
2021/12/15 04:56:54;;;;;;;3.45;1.50;;;;;;;17.54;43.67;102171.50;4879925;29;20028;-69
2021/12/15 04:59:20;;;;;;;3.85;1.20;;;;;;;17.62;43.61;102170.69;4879835;29;20117;-68
2021/12/15 05:01:47;;;;;;;5.18;1.38;;;;;;;17.60;43.79;102175.72;4879772;29;20040;-69
2021/12/15 05:04:14;;;;;;;3.97;1.35;;;;;;;17.64;43.48;102179.47;4879516;29;20029;-69
2021/12/15 05:06:40;;;;;;;5.93;1.60;;;;;;;17.58;43.93;102186.28;4878302;29;20039;-74
2021/12/15 05:09:07;;;;;;;5.38;2.08;;;;;;;17.61;43.75;102184.84;4878618;29;20029;-69
2021/12/15 05:11:34;;;;;;;2.63;1.42;;;;;;;17.57;43.86;102175.56;4879493;29;20036;-77
2021/12/15 05:14:01;;;;;;;4.55;1.50;;;;;;;17.49;44.12;102185.47;4879410;29;20037;-77
2021/12/15 05:16:27;;;;;;;3.72;1.48;;;;;;;17.62;43.88;102187.28;4879176;29;20036;-69
2021/12/15 05:18:53;;;;;;;3.53;1.52;;;;;;;17.61;43.84;102187.59;4879067;29;20036;-69
2021/12/15 05:21:19;;;;;;;6.00;1.20;;;;;;;17.62;43.78;102190.03;4879440;29;20028;-74
2021/12/15 05:23:53;;;;;;;6.45;2.10;;;;;;;17.61;43.94;102184.84;4879290;29;20388;-78
2021/12/15 05:26:19;;;;;;;5.07;1.67;;;;;;;17.70;43.77;102188.41;4879324;29;20044;-76
2021/12/15 05:28:44;;;;;;;4.47;1.35;;;;;;;17.73;43.78;102185.81;4879012;29;20033;-69
2021/12/15 05:31:10;;;;;;;3.42;1.40;;;;;;;17.67;43.61;102180.75;4879290;29;20375;-69
2021/12/15 05:33:35;;;;;;;6.68;1.90;;;;;;;17.72;43.77;102177.84;4879452;29;20541;-69
2021/12/15 05:36:01;;;;;;;5.07;1.80;;;;;;;17.78;43.63;102178.50;4879117;29;20043;-69
2021/12/15 05:38:27;;;;;;;3.53;1.13;;;;;;;17.77;43.68;102186.00;4879135;29;20395;-68
2021/12/15 05:40:53;;;;;;;7.50;1.58;;;;;;;17.84;43.43;102185.50;4879432;29;20029;-70
2021/12/15 05:43:19;;;;;;;6.88;2.10;;;;;;;17.74;43.75;102186.63;4879062;29;20099;-70
2021/12/15 05:45:48;;;;;;;7.30;1.88;;;;;;;17.71;43.90;102190.88;4878912;29;20141;-78
2021/12/15 05:48:14;;;;;;;6.60;2.10;;;;;;;17.72;43.94;102188.91;4879057;29;20062;-70
2021/12/15 05:50:41;;;;;;;6.82;1.80;;;;;;;17.80;43.73;102190.84;4878947;29;20041;-72
2021/12/15 05:53:07;;;;;;;5.05;1.33;;;;;;;17.87;43.41;102182.88;4879064;29;20101;-70
2021/12/15 05:55:34;;;;;;;4.15;1.67;;;;;;;17.73;44.10;102171.19;4878990;29;20487;-69
2021/12/15 05:58:00;;;;;;;3.75;1.60;;;;;;;17.80;43.96;102179.00;4878800;29;20069;-70
2021/12/15 06:00:31;;;;;;;5.65;1.58;;;;;;;17.88;43.67;102173.44;4879229;29;20055;-70
2021/12/15 06:02:58;;;;;;;7.05;1.75;;;;;;;17.78;44.13;102176.56;4878904;29;20493;-70
2021/12/15 06:05:24;;;;;;;5.55;1.60;;;;;;;17.96;43.77;102167.06;4878902;29;20078;-70
2021/12/15 06:07:50;;;;;;;3.83;1.75;;;;;;;17.93;43.80;102175.22;4877834;29;20033;-69
2021/12/15 06:10:21;;;;;;;6.50;1.50;;;;;;;17.80;44.09;102176.22;4876706;29;20080;-69
2021/12/15 06:12:50;;;;;;;5.07;1.80;;;;;;;17.88;43.97;102175.41;4878834;29;20432;-69
2021/12/15 06:15:22;;;;;;;5.22;1.50;;;;;;;17.97;43.91;102179.75;4878698;29;20029;-69
2021/12/15 06:17:50;;;;;;;5.25;1.40;;;;;;;17.87;44.27;102182.88;4879108;29;20060;-69
2021/12/15 06:20:15;;;;;;;4.95;1.52;;;;;;;17.99;44.11;102179.47;4878749;29;20108;-70
2021/12/15 06:22:44;;;;;;;6.95;1.48;;;;;;;18.05;43.94;102188.38;4878651;29;20121;-70
2021/12/15 06:25:10;;;;;;;6.13;1.50;;;;;;;17.98;44.25;102178.63;4878759;29;20105;-73
2021/12/15 06:27:36;;;;;;;5.68;1.70;;;;;;;18.03;44.17;102189.50;4878648;29;20484;-69
2021/12/15 06:30:03;;;;;;;6.45;1.23;;;;;;;18.09;43.92;102189.34;4878694;29;20032;-70
2021/12/15 06:32:29;;;;;;;4.18;1.38;;;;;;;18.01;44.29;102188.22;4878919;29;20017;-74
2021/12/15 06:34:55;;;;;;;4.93;1.35;;;;;;;17.96;44.46;102196.69;4878712;29;20052;-69
2021/12/15 06:37:21;;;;;;;6.25;1.92;;;;;;;18.06;44.19;102204.66;4878901;29;20033;-70
2021/12/15 06:39:46;;;;;;;6.70;1.50;;;;;;;18.12;44.33;102208.84;4878645;29;20510;-70
2021/12/15 06:42:12;;;;;;;6.22;2.20;;;;;;;18.19;44.18;102216.66;4882120;29;20433;-69
2021/12/15 06:44:40;;;;;;;6.28;1.20;;;;;;;18.12;44.45;102221.88;4882332;29;20107;-74
2021/12/15 07:00:28;;;;;;;3.88;1.20;;;;;;;18.50;44.00;102227.47;4882025;29;20026;-68
2021/12/15 07:02:55;;;;;;;10.43;2.58;;;;;;;18.46;44.22;102226.53;4882010;29;20578;-69
2021/12/15 07:05:21;;;;;;;6.45;2.03;;;;;;;18.47;44.18;102230.91;4882082;29;20033;-69
2021/12/15 07:07:49;;;;;;;6.53;1.48;;;;;;;18.42;44.48;102234.66;4881817;29;20036;-69
2021/12/15 07:10:19;;;;;;;5.82;1.58;;;;;;;18.58;43.97;102237.69;4881863;29;20033;-69
2021/12/15 07:12:44;;;;;;;6.75;1.77;;;;;;;18.56;44.07;102240.81;4882043;29;20395;-69
2021/12/15 07:15:11;;;;;;;6.18;1.55;;;;;;;18.51;44.25;102248.47;4881742;29;20108;-69
2021/12/15 07:17:39;;;;;;;5.13;1.48;;;;;;;18.40;44.51;102247.22;4880956;29;20495;-70
2021/12/15 07:22:54;;;;;;;11.35;2.45;;;;;;;18.44;44.48;102254.53;4881507;29;20037;-69
2021/12/15 07:25:21;;;;;;;7.07;1.67;;;;;;;18.50;44.20;102258.72;4881638;29;20043;-69
2021/12/15 07:27:47;;;;;;;5.40;1.38;;;;;;;18.41;44.43;102252.41;4876399;29;20064;-69
2021/12/15 07:30:14;;;;;;;9.90;2.55;;;;;;;18.41;44.38;102263.47;4880640;29;20037;-77
2021/12/15 07:32:40;;;;;;;8.10;1.38;;;;;;;18.41;44.34;102268.19;4881632;29;20048;-69
2021/12/15 07:35:07;;;;;;;5.53;1.30;;;;;;;18.46;44.26;102263.31;4881337;29;20396;-77
2021/12/15 07:37:33;;;;;;;5.85;1.85;;;;;;;18.57;43.91;102272.06;4881240;29;20564;-70
2021/12/15 07:40:00;;;;;;;8.20;1.38;;;;;;;18.50;44.20;102277.28;4862266;29;20112;-70
2021/12/15 07:42:37;;;;;;;8.75;1.92;;;;;;;18.39;44.49;102281.56;4878764;29;20025;-69
2021/12/15 07:45:06;;;;;;;9.52;1.92;;;;;;;18.11;45.02;102279.16;4864506;29;20503;-68
2021/12/15 07:47:31;;;;;;;6.03;2.67;;;;;;;18.44;44.27;102281.38;4880816;29;20109;-70
2021/12/15 07:50:00;;;;;;;6.60;1.60;;;;;;;18.48;44.08;102285.13;4881133;29;20025;-70
2021/12/15 07:52:27;;;;;;;9.70;2.77;;;;;;;18.54;44.01;102283.81;4870179;29;20036;-70
2021/12/15 07:54:52;;;;;;;7.80;1.90;;;;;;;18.67;43.72;102304.16;4865647;29;20271;-70
2021/12/15 07:57:20;;;;;;;6.28;1.67;;;;;;;18.61;43.76;102297.16;4865727;29;20032;-70
2021/12/15 07:59:46;;;;;;;5.25;1.35;;;;;;;18.52;44.01;102305.47;4865577;29;20047;-70
2021/12/15 08:02:12;;;;;;;6.40;1.55;;;;;;;18.33;44.33;102297.50;4865164;29;20132;-71
2021/12/15 08:04:38;;;;;;;17.42;2.22;;;;;;;18.50;44.03;102302.19;4865096;29;20128;-70
2021/12/15 08:07:04;;;;;;;8.73;2.35;;;;;;;18.32;44.42;102309.72;4865178;29;20035;-70
2021/12/15 08:09:29;;;;;;;4.28;1.35;;;;;;;18.30;44.25;102312.03;4865033;29;20651;-78
2021/12/15 08:11:55;;;;;;;6.95;1.48;;;;;;;18.35;44.28;102319.31;4865013;29;20110;-70
2021/12/15 08:14:21;;;;;;;8.35;1.65;;;;;;;18.52;43.92;102311.81;4865447;29;20086;-72
2021/12/15 08:16:47;;;;;;;9.05;2.45;;;;;;;18.52;43.92;102295.22;4864653;29;20536;-71
2021/12/15 08:19:15;;;;;;;16.73;2.25;;;;;;;18.52;43.92;102302.72;4864717;29;20408;-71
2021/12/15 08:21:42;;;;;;;8.32;1.85;;;;;;;18.39;44.20;102312.81;4863041;29;20029;-69
2021/12/15 08:24:08;;;;;;;6.38;1.65;;;;;;;18.53;44.05;102307.09;4864164;29;20041;-71
2021/12/15 08:26:34;;;;;;;10.02;2.30;;;;;;;18.67;43.64;102296.66;4846704;29;20055;-71
2021/12/15 08:28:59;;;;;;;10.45;2.03;;;;;;;18.46;44.30;102304.00;4862345;29;20039;-70
2021/12/15 08:31:25;;;;;;;4.72;1.83;;;;;;;18.50;44.18;102304.97;4864658;29;20077;-70
2021/12/15 08:33:51;;;;;;;9.20;2.00;;;;;;;18.54;44.12;102312.28;4872003;29;20041;-70
2021/12/15 08:36:16;;;;;;;8.40;2.08;;;;;;;18.46;44.26;102299.28;4878951;29;20044;-69
2021/12/15 08:38:45;;;;;;;5.88;1.67;;;;;;;18.70;43.74;102301.53;4879242;29;20033;-75
2021/12/15 08:41:26;;;;;;;6.22;2.15;;;;;;;18.51;44.41;102295.50;4879578;29;20048;-71
2021/12/15 08:43:52;;;;;;;8.02;1.90;;;;;;;18.59;44.00;102291.94;4879966;29;20036;-70
2021/12/15 08:46:23;;;;;;;5.00;1.88;;;;;;;18.44;44.65;102303.50;4879584;29;20140;-74
2021/12/15 08:48:51;;;;;;;6.43;1.50;;;;;;;18.48;44.43;102296.19;4879601;29;20045;-79
2021/12/15 08:51:25;;;;;;;7.07;1.80;;;;;;;18.40;44.58;102297.84;4877503;29;20041;-73
2021/12/15 08:53:53;;;;;;;5.47;2.00;;;;;;;18.67;43.80;102313.28;4880240;29;20069;-70
2021/12/15 08:56:19;;;;;;;9.05;2.17;;;;;;;18.67;43.86;102309.69;4879925;29;20037;-70
2021/12/15 08:58:45;;;;;;;8.98;1.90;;;;;;;18.62;43.99;102312.59;4880133;29;20040;-79
2021/12/15 09:01:10;;;;;;;8.55;2.15;;;;;;;18.50;44.31;102324.34;4879964;29;20528;-69
2021/12/15 09:03:38;;;;;;;3.75;1.48;;;;;;;18.66;43.90;102321.91;4879023;29;20044;-69
2021/12/15 09:06:04;;;;;;;7.35;2.25;;;;;;;18.55;44.16;102330.53;4879847;29;20029;-72
2021/12/15 09:08:30;;;;;;;5.93;1.40;;;;;;;18.56;44.25;102323.03;4879498;29;20043;-69
2021/12/15 09:10:59;;;;;;;5.78;2.20;;;;;;;18.56;44.20;102328.56;4879387;29;20037;-69
2021/12/15 09:13:30;;;;;;;7.88;1.67;;;;;;;18.52;44.36;102324.84;4879392;29;20037;-69
2021/12/15 09:15:58;;;;;;;12.90;2.30;;;;;;;18.56;44.11;102332.16;4879603;29;20040;-69
2021/12/15 09:18:24;;;;;;;4.05;1.45;;;;;;;18.47;44.45;102342.44;4879495;29;20029;-69
2021/12/15 09:20:49;;;;;;;5.88;1.40;;;;;;;18.33;44.91;102333.50;4879503;29;20102;-69
2021/12/15 09:23:17;;;;;;;3.80;1.50;;;;;;;18.46;44.66;102340.00;4879360;29;20044;-70
2021/12/15 09:25:45;;;;;;;5.03;1.58;;;;;;;18.56;44.41;102343.22;4879387;29;20025;-70
2021/12/15 09:28:11;;;;;;;9.93;2.65;;;;;;;18.46;44.72;102345.53;4878787;29;20121;-70
2021/12/15 09:30:44;;;;;;;3.92;1.63;;;;;;;18.60;44.43;102342.59;4878469;29;20028;-77
2021/12/15 09:33:16;;;;;;;7.72;2.65;;;;;;;18.68;44.27;102341.78;4879025;29;20064;-80
2021/12/15 09:35:42;;;;;;;4.25;1.83;;;;;;;18.67;44.42;102340.97;4876998;29;20036;-70
2021/12/15 09:38:13;;;;;;;11.82;2.08;;;;;;;18.74;43.99;102338.50;4879067;29;20411;-70
2021/12/15 09:40:40;;;;;;;7.22;1.63;;;;;;;18.54;44.73;102339.97;4877260;29;20033;-69
2021/12/15 09:43:07;;;;;;;4.05;1.48;;;;;;;18.74;44.43;102343.22;4879601;29;20025;-69
2021/12/15 10:02:05;;;;;;;4.57;1.67;;;;;;;19.17;43.68;102386.59;4878874;29;20043;-68
2021/12/15 10:04:54;;;;;;;4.85;1.35;;;;;;;19.17;43.68;102389.34;4878345;29;20068;-68
2021/12/15 10:10:40;;;;;;;6.03;1.58;;;;;;;19.40;43.61;102405.41;4876062;29;20123;-73
2021/12/15 10:18:22;;;;;;;9.65;2.42;;;;;;;19.98;42.27;102425.19;4878762;29;20044;-69
2021/12/15 10:20:48;;;;;;;6.30;1.48;;;;;;;19.85;42.81;102434.56;4878630;29;20035;-73
2021/12/15 10:23:23;;;;;;;5.72;1.60;;;;;;;19.86;42.74;102436.19;4874770;29;20029;-69
2021/12/15 10:25:49;;;;;;;11.30;3.00;;;;;;;20.13;42.05;102437.66;4862318;29;20044;-69
2021/12/15 10:28:20;;;;;;;5.88;2.03;;;;;;;20.29;41.87;102447.00;4854143;29;20514;-69
2021/12/15 10:30:54;;;;;;;8.52;1.63;;;;;;;20.23;41.86;102448.34;4878435;29;20065;-70
2021/12/15 10:33:27;;;;;;;5.85;2.38;;;;;;;20.13;42.35;102457.09;4878303;29;20120;-69
2021/12/15 10:35:58;;;;;;;10.45;2.80;;;;;;;20.33;41.73;102452.69;4876400;29;20036;-69
2021/12/15 10:38:41;;;;;;;4.10;1.83;;;;;;;20.43;41.57;102453.09;4878156;29;20093;-69
2021/12/15 10:41:15;;;;;;;4.32;1.35;;;;;;;20.12;42.16;102450.72;4877949;29;20036;-69
2021/12/15 10:44:02;;;;;;;5.78;2.22;;;;;;;20.15;41.98;102455.59;4878413;29;20033;-70
2021/12/15 10:46:30;;;;;;;6.20;1.40;;;;;;;20.44;41.68;102460.31;4877641;29;20045;-70
2021/12/15 10:49:24;;;;;;;4.65;1.48;;;;;;;20.43;41.59;102464.22;4878410;29;20116;-70
2021/12/15 10:52:11;;;;;;;3.80;1.08;;;;;;;20.46;41.66;102465.53;4868380;29;20025;-81
2021/12/15 10:54:38;;;;;;;6.20;1.70;;;;;;;20.48;41.82;102466.81;4862354;29;20063;-71
2021/12/15 10:57:18;;;;;;;5.10;1.38;;;;;;;20.73;41.35;102461.38;4874559;29;20085;-69
2021/12/15 10:59:53;;;;;;;10.40;2.13;;;;;;;20.49;41.67;102474.00;4876836;29;20033;-71
2021/12/15 11:02:24;;;;;;;7.13;1.40;;;;;;;20.69;41.36;102477.09;4863037;29;20105;-76
2021/12/15 11:04:53;;;;;;;6.13;1.85;;;;;;;20.65;41.50;102473.38;4862485;29;20089;-70
2021/12/15 11:07:23;;;;;;;6.35;1.73;;;;;;;20.60;41.48;102473.59;4861597;29;20029;-70
2021/12/15 11:09:55;;;;;;;12.02;1.98;;;;;;;20.63;41.66;102487.63;4861201;29;20041;-70
2021/12/15 11:12:30;;;;;;;7.10;1.98;;;;;;;20.66;41.44;102484.16;4861887;29;20041;-72
2021/12/15 11:14:59;;;;;;;4.57;1.27;;;;;;;20.57;41.79;102474.28;4845328;29;20764;-70
2021/12/15 11:17:32;;;;;;;5.13;1.80;;;;;;;20.68;41.48;102472.69;4862696;29;20116;-70
2021/12/15 11:20:03;;;;;;;6.63;1.48;;;;;;;20.71;41.58;102474.81;4862338;29;20141;-70
2021/12/15 11:22:40;;;;;;;6.18;1.67;;;;;;;20.80;41.53;102475.53;4863426;29;20045;-80
2021/12/15 11:25:47;;;;;;;4.72;1.58;;;;;;;20.78;41.40;102481.44;4872466;29;20056;-69
2021/12/15 11:28:16;;;;;;;8.25;2.22;;;;;;;20.87;41.33;102486.09;4881477;29;20037;-69
2021/12/15 11:31:01;;;;;;;8.65;2.05;;;;;;;21.03;40.95;102500.97;4881696;29;20021;-69
2021/12/15 11:33:54;;;;;;;3.88;1.20;;;;;;;21.12;41.01;102481.44;4880564;29;20029;-69
2021/12/15 11:36:32;;;;;;;6.03;1.40;;;;;;;21.06;40.87;102484.41;4865882;29;20047;-70
2021/12/15 11:39:19;;;;;;;7.85;2.22;;;;;;;20.97;41.24;102494.81;4865671;29;20025;-70
2021/12/15 11:41:48;;;;;;;6.20;1.55;;;;;;;21.08;41.17;102494.38;4865823;29;20029;-70
2021/12/15 11:44:23;;;;;;;3.97;1.55;;;;;;;21.21;40.79;102498.81;4867192;29;20025;-70
2021/12/15 11:46:58;;;;;;;8.02;2.63;;;;;;;21.18;40.89;102496.75;4864987;29;20057;-84
2021/12/15 11:49:32;;;;;;;4.57;1.60;;;;;;;21.12;41.06;102496.16;4865758;29;20047;-70
2021/12/15 11:52:14;;;;;;;6.45;1.58;;;;;;;21.30;40.58;102500.38;4865879;29;20029;-70
2021/12/15 11:54:48;;;;;;;2.88;1.40;;;;;;;21.38;40.67;102493.09;4862093;29;20044;-69
2021/12/15 11:57:24;;;;;;;6.78;1.83;;;;;;;21.30;40.91;102494.00;4865826;29;20029;-70
2021/12/15 11:59:55;;;;;;;3.80;1.38;;;;;;;21.50;40.76;102487.56;4864732;29;20497;-70
2021/12/15 12:02:29;;;;;;;6.60;2.30;;;;;;;21.49;40.73;102490.69;4864238;29;20365;-70
2021/12/15 12:05:09;;;;;;;4.43;1.52;;;;;;;21.35;40.40;102487.44;4876465;29;20040;-70
2021/12/15 12:07:48;;;;;;;3.55;1.30;;;;;;;21.51;40.22;102491.97;4881025;29;20060;-70
2021/12/15 12:10:21;;;;;;;3.38;1.17;;;;;;;21.53;40.37;102488.84;4881006;29;20037;-69
2021/12/15 12:12:56;;;;;;;6.53;1.70;;;;;;;21.66;40.01;102486.91;4881063;29;20036;-69
2021/12/15 12:15:27;;;;;;;12.80;3.28;;;;;;;21.53;40.25;102483.28;4880931;29;20029;-69
2021/12/15 12:17:57;;;;;;;9.02;1.95;;;;;;;21.38;40.19;102484.75;4880750;29;20028;-69
2021/12/15 12:20:27;;;;;;;8.02;2.22;;;;;;;21.55;40.24;102489.31;4880885;29;20059;-69
2021/12/15 12:22:55;;;;;;;8.48;1.98;;;;;;;21.64;40.01;102497.56;4880697;29;20036;-69
2021/12/15 12:25:33;;;;;;;5.68;1.55;;;;;;;21.63;40.01;102498.72;4880846;29;20110;-69
2021/12/15 12:27:59;;;;;;;4.72;1.50;;;;;;;21.59;39.92;102496.63;4880676;29;20057;-69
2021/12/15 12:30:34;;;;;;;9.10;2.88;;;;;;;21.73;39.70;102496.28;4880673;29;20033;-70
2021/12/15 12:33:01;;;;;;;6.10;1.90;;;;;;;21.72;39.79;102499.41;4881232;29;20400;-86
2021/12/15 12:35:30;;;;;;;5.95;2.05;;;;;;;21.70;39.90;102496.19;4881249;29;20064;-88
2021/12/15 12:37:59;;;;;;;7.60;1.90;;;;;;;21.61;39.86;102507.38;4880488;29;20047;-71
2021/12/15 12:40:34;;;;;;;5.50;1.45;;;;;;;21.65;39.93;102502.78;4879699;29;20759;-71
2021/12/15 12:43:16;;;;;;;4.40;1.48;;;;;;;21.70;39.70;102499.78;4879845;29;20029;-70
2021/12/15 12:45:43;;;;;;;5.18;2.08;;;;;;;21.84;39.64;102505.00;4879237;29;20111;-69
2021/12/15 12:59:44;;;;;;;5.03;1.48;;;;;;;21.65;39.86;102504.75;4878007;29;20044;-72
2021/12/15 13:02:27;;;;;;;5.13;1.92;;;;;;;21.65;39.87;102513.09;4878872;29;20120;-73
2021/12/15 13:04:53;;;;;;;9.90;5.85;;;;;;;21.76;39.54;102511.47;4877455;29;20505;-73
2021/12/15 13:07:49;;;;;;;10.25;7.20;;;;;;;21.86;39.50;102509.06;4879416;29;20072;-77